Terminal Aerodrome Forecast
Issued by NWS Kansas City/Pleasant Hill, MO

Home | Current Version | Previous Version | Text Only | Print | Product List | Glossary On
Versions: 1 2 3 4 5 6 7 8 9 10 11 12 13 14 15 16
000
FTUS43 KEAX 201700
TAFMCI
TAF
KMCI 201728Z 2018/2118 19012G22KT P6SM SCT050 BKN150
     FM210200 19011KT P6SM VCSH BKN060
     FM210900 20007KT 5SM -SHRA VCTS BKN025CB
     FM211500 31009KT 4SM -SHRA VCTS BKN015CB=

USA.gov is the U.S. government's official web portal to all federal, state and local government web resources and services.